Decoded Metar for KRHP (ANDREWS in NC, USA) (IATA:RHP) | Meteo·Mobile Aviation Weather
aviador You're here:

KRHP Decoded Metar

ANDREWS in NC, USA
Report Time2019-04-25 22:00:00
UTC Time2019-04-25 22:13:15
Flight Rules vfr VFR
Wind200° at 03 kt
W.Decomp.*RWY 26: 1.7 kt HW 2.5 kt LCW
Visibility9999 m
Phenomena:N/A
Clouds:Scattered 045 Hf
Broken 060 Hf
Expected CloudBase > 3,200 ft AGL from Temp-Dew spread
Ceiling6,000 ft
Temp21°C (ISA +9)
Dew Point13°C (60% RH)
AAT20.8°C
QNH1011 hPa
Density Alt3,064 ft
Elevation1,699 ft
Report Wrong Elevation
Raw Report
METAR KRHP 252200Z AUTO 20003KT 10SM SCT045 BKN060 21/13 A2986 RMK
AO2 T02100133=

Extra information for KRHP:More info

Metar Taf Metar & Taf Last 4 Metars F.Rules Stats Wind Profile Meteogram Temp Stats Airport Information Weather charts Add Link Nearby VenuesMetar ALERT Operation Metar Decoded Social comments

AIRNAV info for KRHP